Time;durP1;ratioP1;P1;durP2;ratioP2;P2;SDS_P1;SDS_P2;PMS_P1;PMS_P2;Temp;Humidity;BMP_temperature;BMP_pressure;BME280_temperature;BME280_humidity;BME280_pressure;Samples;Min_cycle;Max_cycle;Signal;HPM_P1;HPM_P2
2023/02/08 00:00:30;;;;;;;7.25;3.72;;;-1.50;99.90;;;;;;4974540;28;20027;-74
2023/02/08 00:02:55;;;;;;;6.57;3.70;;;-1.60;99.90;;;;;;4966634;28;20497;-74
2023/02/08 00:05:21;;;;;;;6.05;3.15;;;-1.60;99.90;;;;;;4974321;28;20510;-74
2023/02/08 00:07:47;;;;;;;11.18;5.60;;;-1.70;99.90;;;;;;4966737;28;20039;-74
2023/02/08 00:10:13;;;;;;;12.18;3.65;;;-1.70;99.90;;;;;;4974337;28;20173;-74
2023/02/08 00:12:38;;;;;;;19.08;5.68;;;-1.70;99.90;;;;;;4966576;28;20034;-74
2023/02/08 00:15:05;;;;;;;5.10;3.22;;;-1.70;99.90;;;;;;4974075;28;20038;-74
2023/02/08 00:17:31;;;;;;;5.85;3.35;;;-1.70;99.90;;;;;;4957226;28;20065;-74
2023/02/08 00:19:56;;;;;;;13.18;5.03;;;-1.80;99.90;;;;;;4956740;28;20093;-74
2023/02/08 00:22:22;;;;;;;12.73;5.10;;;-1.80;99.90;;;;;;4973305;28;20403;-74
2023/02/08 00:24:50;;;;;;;9.02;2.70;;;-1.80;99.90;;;;;;4973748;28;20123;-74
2023/02/08 00:27:16;;;;;;;9.25;4.82;;;-1.80;99.90;;;;;;4964585;28;20089;-74
2023/02/08 00:29:42;;;;;;;5.93;3.05;;;-1.80;99.90;;;;;;4964577;28;20038;-74
2023/02/08 00:32:09;;;;;;;5.00;3.47;;;-1.90;99.90;;;;;;4965625;28;20030;-74
2023/02/08 00:34:36;;;;;;;5.57;3.45;;;-1.90;99.90;;;;;;4973715;28;20054;-74
2023/02/08 00:37:02;;;;;;;6.28;3.53;;;-1.90;99.90;;;;;;4966372;28;20038;-74
2023/02/08 00:39:27;;;;;;;9.18;2.75;;;-1.90;99.90;;;;;;4973401;28;20027;-74
2023/02/08 00:41:53;;;;;;;5.45;3.53;;;-1.90;99.90;;;;;;4972863;28;20491;-74
2023/02/08 00:44:19;;;;;;;4.68;4.05;;;-1.80;99.90;;;;;;4973308;28;20035;-74
2023/02/08 00:46:44;;;;;;;12.43;3.72;;;-1.80;99.90;;;;;;4967228;28;20373;-74
2023/02/08 00:49:10;;;;;;;4.43;2.92;;;-1.80;99.90;;;;;;4972523;28;20045;-74
2023/02/08 00:51:36;;;;;;;9.80;3.85;;;-1.80;99.90;;;;;;4969341;28;20066;-74
2023/02/08 00:54:02;;;;;;;10.35;3.75;;;-1.90;99.90;;;;;;4973325;28;20118;-74
2023/02/08 00:56:27;;;;;;;9.80;5.32;;;-1.90;99.90;;;;;;4969126;28;20039;-73
2023/02/08 00:58:53;;;;;;;13.45;4.32;;;-1.90;99.90;;;;;;4977275;28;20058;-73
2023/02/08 01:01:19;;;;;;;6.50;3.92;;;-1.90;99.90;;;;;;4970579;28;20104;-74
2023/02/08 01:03:45;;;;;;;11.25;3.38;;;-2.00;99.90;;;;;;4967395;28;20550;-73
2023/02/08 01:06:15;;;;;;;6.57;3.25;;;-1.90;99.90;;;;;;4972325;28;20031;-73
2023/02/08 01:08:41;;;;;;;7.80;4.25;;;-2.00;99.90;;;;;;4964249;28;20038;-74
2023/02/08 01:11:21;;;;;;;8.32;3.63;;;-2.00;99.90;;;;;;4971843;28;20027;-74
2023/02/08 01:13:48;;;;;;;9.02;3.17;;;-2.00;99.90;;;;;;4968830;28;20368;-74
2023/02/08 01:16:19;;;;;;;8.35;3.55;;;-2.10;99.90;;;;;;4968707;28;20038;-73
2023/02/08 01:18:48;;;;;;;9.20;3.92;;;-2.10;99.90;;;;;;4975589;28;20041;-73
2023/02/08 01:21:21;;;;;;;10.10;3.90;;;-2.10;99.90;;;;;;4969013;28;20097;-73
2023/02/08 01:23:47;;;;;;;8.23;4.68;;;-2.10;99.90;;;;;;4968416;28;20468;-73
2023/02/08 01:26:15;;;;;;;5.50;4.13;;;-2.10;99.90;;;;;;4971121;28;20548;-74
2023/02/08 01:28:42;;;;;;;10.90;4.38;;;-2.10;99.90;;;;;;4973447;28;20049;-74
2023/02/08 01:31:17;;;;;;;4.60;3.35;;;-2.20;99.90;;;;;;4955728;28;20106;-74
2023/02/08 01:33:43;;;;;;;11.80;4.90;;;-2.20;99.90;;;;;;4974582;28;20118;-74
2023/02/08 01:36:10;;;;;;;6.55;3.60;;;-2.20;99.90;;;;;;4971973;28;20101;-73
2023/02/08 01:38:37;;;;;;;8.60;3.67;;;-2.20;99.90;;;;;;4972816;28;20022;-73
2023/02/08 01:41:06;;;;;;;7.03;4.00;;;-2.20;99.90;;;;;;4968704;28;20038;-73
2023/02/08 01:44:10;;;;;;;12.73;4.38;;;-2.30;99.90;;;;;;4972564;28;20110;-73
2023/02/08 01:46:46;;;;;;;9.88;5.25;;;-2.30;99.90;;;;;;4953939;28;20039;-73
2023/02/08 01:49:30;;;;;;;6.45;3.42;;;-2.30;99.90;;;;;;4978310;28;20189;-73
2023/02/08 01:52:16;;;;;;;7.15;4.53;;;-2.30;99.90;;;;;;4964083;28;20031;-75
2023/02/08 01:54:59;;;;;;;11.50;3.85;;;-2.30;99.90;;;;;;4972349;28;20075;-73
2023/02/08 01:57:26;;;;;;;6.53;3.47;;;-2.20;99.90;;;;;;4955836;28;20035;-73
2023/02/08 02:00:06;;;;;;;12.93;4.75;;;-2.20;99.90;;;;;;4962979;28;20390;-73
2023/02/08 02:02:34;;;;;;;11.23;4.15;;;-2.20;99.90;;;;;;4948958;28;20128;-73
2023/02/08 02:05:00;;;;;;;9.07;3.80;;;-2.20;99.90;;;;;;4953549;28;20063;-73
2023/02/08 02:07:29;;;;;;;6.53;3.17;;;-2.30;99.90;;;;;;4948289;28;20101;-73
2023/02/08 02:10:12;;;;;;;5.28;2.60;;;-2.30;99.90;;;;;;4970551;28;20368;-73
2023/02/08 02:12:40;;;;;;;7.50;3.40;;;-2.40;99.90;;;;;;4942374;28;20216;-73
2023/02/08 02:15:08;;;;;;;6.55;3.88;;;-2.40;99.90;;;;;;4971674;28;20026;-73
2023/02/08 02:17:36;;;;;;;8.68;3.45;;;-2.40;99.90;;;;;;4970815;28;20089;-73
2023/02/08 02:20:24;;;;;;;7.57;3.15;;;-2.40;99.90;;;;;;4962901;28;20039;-73
2023/02/08 02:23:14;;;;;;;6.13;4.47;;;-2.50;99.90;;;;;;4964428;28;20042;-73
2023/02/08 02:26:18;;;;;;;6.43;3.80;;;-2.60;99.90;;;;;;4952314;28;20044;-73
2023/02/08 02:29:26;;;;;;;7.82;2.47;;;-2.70;99.90;;;;;;4967240;28;20042;-73
2023/02/08 02:31:59;;;;;;;11.40;4.22;;;-2.70;99.90;;;;;;4953051;28;20063;-74
2023/02/08 02:34:36;;;;;;;12.35;3.38;;;-2.70;99.90;;;;;;4962382;28;20486;-74
2023/02/08 02:37:39;;;;;;;3.70;2.60;;;-2.70;99.90;;;;;;4963833;28;20043;-73
2023/02/08 02:40:34;;;;;;;3.22;2.33;;;-2.70;99.90;;;;;;4971883;28;20023;-74
2023/02/08 02:43:45;;;;;;;5.35;3.00;;;-2.60;99.90;;;;;;4964042;28;20050;-74
2023/02/08 02:46:39;;;;;;;6.88;1.80;;;-2.60;99.90;;;;;;4969413;28;20050;-74
2023/02/08 02:49:19;;;;;;;3.60;1.90;;;-2.50;99.90;;;;;;4970069;28;20093;-73
2023/02/08 02:52:09;;;;;;;3.95;3.17;;;-2.60;99.90;;;;;;4965241;28;20031;-73
2023/02/08 02:54:51;;;;;;;5.35;2.63;;;-2.50;99.90;;;;;;4965404;28;20045;-72
2023/02/08 02:57:27;;;;;;;2.30;1.83;;;-2.50;99.90;;;;;;4947069;28;20023;-73
2023/02/08 02:59:53;;;;;;;4.45;2.33;;;-2.60;99.90;;;;;;4962650;28;20031;-74
2023/02/08 03:02:20;;;;;;;4.78;2.40;;;-2.60;99.90;;;;;;4963658;28;20117;-73
2023/02/08 03:04:56;;;;;;;6.40;2.50;;;-2.70;99.90;;;;;;4966278;28;20046;-74
2023/02/08 03:08:00;;;;;;;6.80;3.63;;;-2.70;99.90;;;;;;4965637;28;20026;-74
2023/02/08 03:11:12;;;;;;;4.25;3.05;;;-2.80;99.90;;;;;;4960419;28;20069;-73
2023/02/08 03:14:07;;;;;;;;;;;-2.90;99.90;;;;;;4961703;28;20528;-74
2023/02/08 03:17:09;;;;;;;6.43;2.85;;;-2.90;99.90;;;;;;4961541;28;19993;-74
2023/02/08 03:19:46;;;;;;;2.90;1.50;;;-2.80;99.90;;;;;;4969638;28;20034;-73
2023/02/08 03:22:20;;;;;;;3.08;1.85;;;-2.80;99.90;;;;;;4967478;28;20097;-74
2023/02/08 03:25:16;;;;;;;4.50;2.03;;;-2.80;99.90;;;;;;4966052;28;20023;-74
2023/02/08 03:28:25;;;;;;;1.38;1.13;;;-2.80;99.90;;;;;;4965235;28;20523;-73
2023/02/08 03:31:12;;;;;;;3.08;1.50;;;-2.90;99.90;;;;;;4954151;28;20043;-73
2023/02/08 03:34:01;;;;;;;9.23;3.35;;;-2.90;99.90;;;;;;4969047;28;20043;-74
2023/02/08 03:36:41;;;;;;;1.85;0.98;;;-2.90;99.90;;;;;;4928570;28;20026;-73
2023/02/08 03:39:14;;;;;;;2.90;2.17;;;-3.10;99.90;;;;;;4965307;28;20042;-73
2023/02/08 03:41:45;;;;;;;3.28;2.28;;;-3.10;99.90;;;;;;4965327;28;20035;-74
2023/02/08 03:44:15;;;;;;;;;;;-3.10;99.90;;;;;;4964824;28;20034;-74
2023/02/08 03:47:11;;;;;;;10.07;2.17;;;-3.10;99.90;;;;;;4970270;28;19914;-73
2023/02/08 03:49:40;;;;;;;2.92;2.42;;;-3.10;99.90;;;;;;4960398;28;20711;-73
2023/02/08 03:52:09;;;;;;;10.82;3.45;;;-3.20;99.90;;;;;;4949939;28;20089;-73
2023/02/08 03:54:45;;;;;;;5.30;2.55;;;-3.20;99.90;;;;;;4965071;28;20114;-73
2023/02/08 03:57:28;;;;;;;2.85;2.60;;;-3.20;99.90;;;;;;4966263;28;20031;-73
2023/02/08 04:00:00;;;;;;;7.43;3.67;;;-3.20;99.90;;;;;;4965368;28;20114;-74
2023/02/08 04:02:30;;;;;;;5.65;2.90;;;-3.20;99.90;;;;;;4966720;28;20030;-74
2023/02/08 04:04:59;;;;;;;2.33;2.03;;;-3.20;99.90;;;;;;4965069;28;20027;-74
2023/02/08 04:07:25;;;;;;;12.20;2.78;;;-3.20;99.90;;;;;;4964501;28;20039;-73
2023/02/08 04:09:50;;;;;;;4.32;2.47;;;-3.20;99.90;;;;;;4965270;28;20035;-73
2023/02/08 04:12:16;;;;;;;7.05;3.70;;;-3.30;99.90;;;;;;4964527;28;20066;-73
2023/02/08 04:14:42;;;;;;;5.07;2.53;;;-3.30;99.90;;;;;;4973033;28;20039;-74
2023/02/08 04:17:07;;;;;;;9.18;2.30;;;-3.30;99.90;;;;;;4966520;28;20038;-73
2023/02/08 04:19:33;;;;;;;5.25;2.35;;;-3.30;99.90;;;;;;4965079;28;20035;-73
2023/02/08 04:21:59;;;;;;;4.95;2.95;;;-3.30;99.90;;;;;;4966539;28;20118;-73
2023/02/08 04:24:25;;;;;;;2.45;1.92;;;-3.30;99.90;;;;;;4964457;28;20066;-73
2023/02/08 04:26:51;;;;;;;3.75;2.33;;;-3.30;99.90;;;;;;4967950;28;20410;-74
2023/02/08 04:29:17;;;;;;;3.72;2.20;;;-3.30;99.90;;;;;;4974189;28;20039;-74
2023/02/08 04:31:43;;;;;;;4.97;2.53;;;-3.20;99.90;;;;;;4967931;28;20042;-73
2023/02/08 04:34:08;;;;;;;3.03;2.45;;;-3.30;99.90;;;;;;4978871;28;20035;-74
2023/02/08 04:36:34;;;;;;;8.48;2.58;;;-3.30;99.90;;;;;;4972902;28;20114;-74
2023/02/08 04:39:00;;;;;;;7.05;4.18;;;-3.30;99.90;;;;;;4964356;28;20034;-74
2023/02/08 04:41:26;;;;;;;4.97;3.05;;;-3.30;99.90;;;;;;4970305;28;20027;-74
2023/02/08 04:43:51;;;;;;;4.57;2.13;;;-3.40;99.90;;;;;;4976609;28;20089;-73
2023/02/08 04:46:17;;;;;;;5.35;2.90;;;-3.40;99.90;;;;;;4986806;23;20038;-72
2023/02/08 04:48:43;;;;;;;5.97;3.13;;;-3.30;99.90;;;;;;4982238;28;20035;-73
2023/02/08 04:51:08;;;;;;;6.00;2.88;;;-3.40;99.90;;;;;;4975278;28;20422;-73
2023/02/08 04:53:34;;;;;;;5.82;3.22;;;-3.40;99.90;;;;;;4967809;28;20079;-73
2023/02/08 04:56:00;;;;;;;3.30;2.72;;;-3.40;99.90;;;;;;4973815;28;20035;-73
2023/02/08 04:58:26;;;;;;;7.40;4.10;;;-3.40;99.90;;;;;;4967754;28;20027;-73
2023/02/08 05:00:51;;;;;;;7.72;2.08;;;-3.40;99.90;;;;;;4968979;28;20046;-73
2023/02/08 05:03:18;;;;;;;4.63;2.13;;;-3.40;99.90;;;;;;4960556;28;20027;-72
2023/02/08 05:05:44;;;;;;;5.00;2.55;;;-3.50;99.90;;;;;;4973368;28;20486;-72
2023/02/08 05:08:09;;;;;;;3.13;1.80;;;-3.40;99.90;;;;;;4962126;28;20047;-72
2023/02/08 05:10:35;;;;;;;5.30;2.53;;;-3.40;99.90;;;;;;4973409;28;20030;-73
2023/02/08 05:13:01;;;;;;;11.35;3.75;;;-3.40;99.90;;;;;;4967938;28;20070;-73
2023/02/08 05:15:26;;;;;;;5.07;2.33;;;-3.40;99.90;;;;;;4973162;28;20037;-73
2023/02/08 05:17:52;;;;;;;6.00;3.20;;;-3.40;99.90;;;;;;4981322;28;20070;-72
2023/02/08 05:20:18;;;;;;;7.10;2.15;;;-3.40;99.90;;;;;;4963827;28;20030;-72
2023/02/08 05:22:43;;;;;;;13.02;3.15;;;-3.40;99.90;;;;;;4960462;28;20031;-73
2023/02/08 05:25:09;;;;;;;19.80;4.00;;;-3.40;99.90;;;;;;4972771;28;20038;-73
2023/02/08 05:27:36;;;;;;;6.22;2.50;;;-3.50;99.90;;;;;;4955926;28;20414;-73
2023/02/08 05:30:03;;;;;;;7.22;3.15;;;-3.50;99.90;;;;;;4963844;28;20189;-73
2023/02/08 05:32:29;;;;;;;4.82;3.45;;;-3.60;99.90;;;;;;4945598;28;20034;-73
2023/02/08 05:34:54;;;;;;;4.82;2.38;;;-3.70;99.90;;;;;;4972167;28;20105;-75
2023/02/08 05:37:20;;;;;;;3.15;2.20;;;-3.70;99.90;;;;;;4967086;28;20097;-73
2023/02/08 05:39:46;;;;;;;3.78;2.08;;;-3.70;99.90;;;;;;4973159;28;20030;-71
2023/02/08 05:42:11;;;;;;;6.18;2.45;;;-3.70;99.90;;;;;;4964757;28;20019;-74
2023/02/08 05:44:37;;;;;;;2.40;1.88;;;-3.70;99.90;;;;;;4951265;28;20035;-73
2023/02/08 05:47:03;;;;;;;7.53;2.47;;;-3.60;99.90;;;;;;4966740;28;20121;-73
2023/02/08 05:49:29;;;;;;;2.58;1.73;;;-3.60;99.90;;;;;;4972844;28;20035;-73
2023/02/08 05:51:54;;;;;;;7.57;4.63;;;-3.60;99.90;;;;;;4967116;28;20027;-75
2023/02/08 05:54:20;;;;;;;9.40;2.95;;;-3.60;99.90;;;;;;4962799;28;20057;-74
2023/02/08 05:56:46;;;;;;;7.30;3.85;;;-3.60;99.90;;;;;;4969450;28;20035;-75
2023/02/08 05:59:12;;;;;;;3.75;2.30;;;-3.70;99.90;;;;;;4966571;28;20054;-73
2023/02/08 06:01:38;;;;;;;8.00;3.53;;;-3.70;99.90;;;;;;4968831;28;20059;-78
2023/02/08 06:04:04;;;;;;;1.85;1.33;;;-3.70;99.90;;;;;;4970104;28;20526;-78
2023/02/08 06:06:29;;;;;;;9.80;3.50;;;-3.70;99.90;;;;;;4970594;28;20648;-75
2023/02/08 06:08:55;;;;;;;10.63;2.63;;;-3.70;99.90;;;;;;4967150;28;20053;-77
2023/02/08 06:11:21;;;;;;;4.80;3.30;;;-3.70;99.90;;;;;;4969010;28;20233;-76
2023/02/08 06:13:47;;;;;;;7.10;3.08;;;-3.60;99.90;;;;;;4967852;28;20081;-74
2023/02/08 06:16:14;;;;;;;2.25;2.05;;;-3.50;99.90;;;;;;4971313;28;20037;-74
2023/02/08 06:18:40;;;;;;;4.03;2.20;;;-3.50;99.90;;;;;;4973958;28;20031;-74
2023/02/08 06:21:06;;;;;;;5.68;2.92;;;-3.60;99.90;;;;;;4971820;28;20382;-74
2023/02/08 06:23:32;;;;;;;28.63;2.85;;;-3.60;99.90;;;;;;4962636;28;20041;-73
2023/02/08 06:25:57;;;;;;;7.38;3.47;;;-3.60;99.90;;;;;;4968412;28;20027;-74
2023/02/08 06:28:23;;;;;;;3.83;2.30;;;-3.60;99.90;;;;;;4971063;28;20042;-74
2023/02/08 06:30:50;;;;;;;4.30;3.17;;;-3.60;99.90;;;;;;4971959;28;20255;-75
2023/02/08 06:33:17;;;;;;;6.22;3.00;;;-3.60;99.90;;;;;;4955782;28;20045;-74
2023/02/08 06:35:47;;;;;;;3.25;1.88;;;-3.60;99.90;;;;;;4957511;28;20093;-74
2023/02/08 06:38:13;;;;;;;9.40;4.50;;;-3.60;99.90;;;;;;4976966;28;20501;-74
2023/02/08 06:40:39;;;;;;;2.15;1.75;;;-3.70;99.90;;;;;;4971771;28;20042;-74
2023/02/08 06:43:05;;;;;;;9.52;5.28;;;-3.70;99.90;;;;;;4970646;28;20026;-74
2023/02/08 06:45:31;;;;;;;8.45;3.42;;;-3.70;99.90;;;;;;4971400;28;20049;-74
2023/02/08 06:47:56;;;;;;;6.88;2.90;;;-3.70;99.90;;;;;;4967828;28;20038;-74
2023/02/08 06:50:22;;;;;;;7.80;4.13;;;-3.70;99.90;;;;;;4959492;28;20511;-74
2023/02/08 06:52:48;;;;;;;4.75;2.60;;;-3.60;99.90;;;;;;4970976;28;20037;-75
2023/02/08 06:55:14;;;;;;;6.85;3.45;;;-3.60;99.90;;;;;;4963188;28;20035;-75
2023/02/08 06:57:39;;;;;;;6.57;3.28;;;-3.60;99.90;;;;;;4946385;28;20038;-75
2023/02/08 07:00:06;;;;;;;7.40;2.50;;;-3.60;99.90;;;;;;4952128;28;20046;-74
2023/02/08 07:02:32;;;;;;;2.97;2.45;;;-3.60;99.90;;;;;;4958612;28;20045;-74
2023/02/08 07:04:58;;;;;;;14.68;2.38;;;-3.50;99.90;;;;;;4971092;28;20035;-74
2023/02/08 07:07:24;;;;;;;7.10;3.85;;;-3.50;99.90;;;;;;4968643;28;20035;-74
2023/02/08 07:09:50;;;;;;;3.95;2.65;;;-3.50;99.90;;;;;;4961908;28;20046;-74
2023/02/08 07:12:16;;;;;;;3.15;1.45;;;-3.50;99.90;;;;;;4969512;28;20035;-74
2023/02/08 07:14:43;;;;;;;6.28;2.40;;;-3.50;99.90;;;;;;4967463;28;20046;-73
2023/02/08 07:17:10;;;;;;;5.13;3.70;;;-3.40;99.90;;;;;;4969895;28;20054;-72
2023/02/08 07:19:37;;;;;;;5.05;2.70;;;-3.30;99.90;;;;;;4980146;28;20027;-77
2023/02/08 07:22:08;;;;;;;8.20;4.03;;;-3.20;99.90;;;;;;4954383;28;20499;-76
2023/02/08 07:24:36;;;;;;;4.10;2.75;;;-3.10;99.90;;;;;;4970918;28;20047;-74
2023/02/08 07:27:04;;;;;;;11.75;7.40;;;-2.90;99.90;;;;;;4964240;28;20038;-74
2023/02/08 07:29:31;;;;;;;6.63;3.13;;;-2.80;99.90;;;;;;4971272;28;20067;-73
2023/02/08 07:32:02;;;;;;;4.40;2.58;;;-2.70;99.90;;;;;;4952253;28;20657;-73
2023/02/08 07:34:30;;;;;;;8.23;3.03;;;-2.70;99.90;;;;;;4956568;28;20058;-74
2023/02/08 07:36:56;;;;;;;8.50;3.58;;;-2.60;99.90;;;;;;4945670;28;20046;-74
2023/02/08 07:39:22;;;;;;;10.27;4.40;;;-2.50;99.90;;;;;;4957709;28;20035;-76
2023/02/08 07:41:48;;;;;;;2.25;2.05;;;-2.50;99.90;;;;;;4956848;28;20070;-73
2023/02/08 07:44:13;;;;;;;8.80;4.32;;;-2.50;99.90;;;;;;4958858;28;20039;-74
2023/02/08 07:46:39;;;;;;;9.52;3.25;;;-2.50;99.90;;;;;;4961936;28;20053;-76
2023/02/08 07:49:05;;;;;;;4.38;2.50;;;-2.40;99.90;;;;;;4964342;28;20086;-75
2023/02/08 07:51:31;;;;;;;6.40;4.03;;;-2.30;99.90;;;;;;4970078;28;20033;-76
2023/02/08 07:53:57;;;;;;;3.70;2.60;;;-2.30;99.90;;;;;;4957253;28;20039;-76
2023/02/08 07:56:23;;;;;;;8.25;5.05;;;-2.30;99.90;;;;;;4959953;28;20090;-76
2023/02/08 07:58:49;;;;;;;7.95;3.38;;;-2.30;99.90;;;;;;4976997;28;20030;-75
2023/02/08 08:01:14;;;;;;;4.43;2.10;;;-2.20;99.90;;;;;;4972775;28;20037;-75
2023/02/08 08:03:40;;;;;;;6.38;3.58;;;-2.10;99.90;;;;;;4970170;28;20034;-75
2023/02/08 08:06:06;;;;;;;6.93;4.32;;;-2.00;99.90;;;;;;4974366;28;20046;-76
2023/02/08 08:08:32;;;;;;;14.95;3.47;;;-1.90;99.90;;;;;;4970455;28;20033;-76
2023/02/08 08:10:57;;;;;;;14.35;4.32;;;-1.80;99.90;;;;;;4974181;28;20066;-75
2023/02/08 08:13:23;;;;;;;4.93;3.50;;;-1.70;99.90;;;;;;4969934;28;20034;-75
2023/02/08 08:15:49;;;;;;;9.93;4.97;;;-1.60;99.90;;;;;;4974394;28;20038;-75
2023/02/08 08:18:15;;;;;;;7.90;3.58;;;-1.60;99.90;;;;;;4969659;28;20027;-75
2023/02/08 08:20:40;;;;;;;10.85;3.47;;;-1.50;99.90;;;;;;4967476;28;20110;-75
2023/02/08 08:23:07;;;;;;;8.75;3.67;;;-1.40;99.90;;;;;;4969942;28;20101;-76
2023/02/08 08:25:33;;;;;;;13.98;3.97;;;-1.20;99.90;;;;;;4965994;28;20039;-75
2023/02/08 08:28:00;;;;;;;7.93;3.78;;;-1.10;99.90;;;;;;4968989;28;20034;-76
2023/02/08 08:30:26;;;;;;;14.02;5.97;;;-1.00;99.90;;;;;;4973422;28;20035;-74
2023/02/08 08:32:51;;;;;;;6.85;3.60;;;-0.80;99.90;;;;;;4973914;28;20034;-74
2023/02/08 08:35:18;;;;;;;9.23;3.03;;;-0.70;99.90;;;;;;4965875;28;20073;-75
2023/02/08 08:37:44;;;;;;;7.38;3.33;;;-0.50;99.90;;;;;;4967863;28;20045;-76
2023/02/08 08:40:10;;;;;;;7.07;3.13;;;-0.40;99.90;;;;;;4966304;28;20026;-78
2023/02/08 08:42:38;;;;;;;6.75;4.13;;;-0.30;99.90;;;;;;4967089;28;20034;-73
2023/02/08 08:45:06;;;;;;;11.43;3.22;;;-0.10;99.90;;;;;;4972632;28;20053;-74
2023/02/08 08:47:31;;;;;;;5.93;3.28;;;0.00;99.90;;;;;;4965617;28;20081;-74
2023/02/08 08:49:57;;;;;;;3.83;2.60;;;0.10;99.90;;;;;;4957079;28;20039;-74
2023/02/08 08:52:23;;;;;;;7.43;4.20;;;0.20;99.90;;;;;;4973538;28;20480;-75
2023/02/08 08:54:49;;;;;;;13.20;3.88;;;0.30;99.90;;;;;;4958904;28;20477;-76
2023/02/08 08:57:16;;;;;;;7.78;3.83;;;0.40;99.90;;;;;;4973485;28;20030;-77
2023/02/08 08:59:41;;;;;;;6.85;3.28;;;0.40;99.90;;;;;;4951312;28;20128;-76
2023/02/08 09:02:12;;;;;;;11.38;3.05;;;0.50;99.90;;;;;;4973230;28;20034;-76
2023/02/08 09:04:39;;;;;;;7.13;2.78;;;0.70;99.90;;;;;;4965732;28;20038;-76
2023/02/08 09:07:06;;;;;;;8.60;4.25;;;0.80;99.90;;;;;;4973298;28;20402;-75
2023/02/08 09:09:32;;;;;;;16.70;3.58;;;0.90;99.90;;;;;;4963811;28;20037;-76
2023/02/08 09:11:58;;;;;;;6.82;4.05;;;1.00;99.90;;;;;;4967456;28;20031;-76
2023/02/08 09:14:24;;;;;;;6.35;3.45;;;1.10;99.90;;;;;;4969835;28;20043;-76
2023/02/08 09:16:50;;;;;;;9.63;4.18;;;1.20;99.90;;;;;;4960591;28;20050;-77
2023/02/08 09:19:15;;;;;;;8.10;3.05;;;1.30;99.60;;;;;;4966936;28;20035;-76
2023/02/08 09:21:42;;;;;;;5.32;2.85;;;1.40;99.10;;;;;;4972917;28;20102;-76
2023/02/08 09:24:08;;;;;;;5.93;3.15;;;1.50;98.80;;;;;;4969488;28;20038;-76
2023/02/08 09:26:34;;;;;;;6.20;2.97;;;1.70;98.40;;;;;;4952309;28;20053;-76
2023/02/08 09:29:00;;;;;;;13.60;4.03;;;1.80;98.10;;;;;;4971362;28;20038;-75
2023/02/08 09:31:29;;;;;;;7.13;2.97;;;1.80;97.70;;;;;;4960789;28;20122;-77
2023/02/08 09:33:59;;;;;;;8.20;3.50;;;1.90;97.70;;;;;;4956707;28;20034;-77
2023/02/08 09:36:30;;;;;;;18.90;4.90;;;2.10;96.70;;;;;;4964889;28;20034;-78
2023/02/08 09:39:00;;;;;;;7.30;3.50;;;2.10;96.70;;;;;;4963839;28;20094;-78
2023/02/08 09:41:35;;;;;;;5.78;3.22;;;2.40;96.00;;;;;;4954960;28;20030;-80
2023/02/08 09:44:28;;;;;;;7.55;3.40;;;2.30;95.50;;;;;;4954698;28;20035;-78
2023/02/08 09:47:12;;;;;;;15.20;3.17;;;2.50;95.10;;;;;;4968787;28;20556;-79
2023/02/08 09:49:56;;;;;;;8.93;2.92;;;2.60;94.70;;;;;;4972108;28;20375;-77
2023/02/08 09:52:36;;;;;;;10.23;3.25;;;2.70;93.50;;;;;;4957806;28;20069;-77
2023/02/08 09:55:48;;;;;;;24.80;3.78;;;2.70;93.00;;;;;;4963150;28;20091;-77
2023/02/08 09:58:34;;;;;;;9.68;3.45;;;2.90;93.10;;;;;;4966517;28;20061;-76
2023/02/08 10:01:01;;;;;;;17.58;3.63;;;3.10;92.70;;;;;;4968943;28;20027;-75
2023/02/08 10:03:38;;;;;;;6.35;1.88;;;3.10;91.70;;;;;;4967257;28;20026;-79
2023/02/08 10:06:08;;;;;;;13.55;3.70;;;3.30;91.20;;;;;;4957171;28;20034;-75
2023/02/08 10:08:35;;;;;;;5.90;2.38;;;3.40;91.50;;;;;;4948935;28;20089;-76
2023/02/08 10:11:37;;;;;;;7.53;4.18;;;3.70;91.10;;;;;;4956723;28;20026;-76
2023/02/08 10:14:15;;;;;;;6.55;2.53;;;3.70;90.20;;;;;;4969623;28;20046;-75
2023/02/08 10:17:12;;;;;;;6.63;3.78;;;4.10;89.90;;;;;;4967556;28;20031;-75
2023/02/08 10:19:48;;;;;;;10.50;3.88;;;5.10;85.00;;;;;;4966439;28;20030;-77
2023/02/08 10:22:51;;;;;;;13.55;3.63;;;6.30;81.10;;;;;;4967058;28;20127;-76
2023/02/08 10:25:41;;;;;;;5.57;2.20;;;8.30;77.80;;;;;;4971710;28;20085;-77
2023/02/08 10:28:28;;;;;;;5.75;3.10;;;9.40;73.40;;;;;;4967112;28;20134;-77
2023/02/08 10:31:00;;;;;;;11.27;3.38;;;8.50;71.10;;;;;;4972002;28;20033;-78
2023/02/08 10:33:57;;;;;;;5.25;2.85;;;10.50;69.40;;;;;;4966664;28;20109;-75
2023/02/08 10:36:32;;;;;;;8.68;3.00;;;11.60;64.20;;;;;;4937895;28;20035;-75
2023/02/08 10:38:59;;;;;;;12.15;3.60;;;13.10;60.10;;;;;;4956147;28;20027;-75
2023/02/08 10:41:35;;;;;;;14.23;2.88;;;13.90;55.40;;;;;;4969497;28;20541;-75
2023/02/08 10:44:29;;;;;;;9.50;3.83;;;8.50;58.80;;;;;;4975704;28;20058;-75
2023/02/08 10:47:41;;;;;;;7.05;3.20;;;9.90;60.00;;;;;;4975949;23;20066;-74
2023/02/08 10:50:31;;;;;;;13.18;4.03;;;9.20;60.80;;;;;;4956227;28;20066;-74
2023/02/08 10:52:56;;;;;;;19.55;3.60;;;6.80;62.00;;;;;;4954642;28;20066;-73
2023/02/08 10:55:23;;;;;;;20.42;3.50;;;7.00;65.80;;;;;;4971213;28;20109;-74
2023/02/08 10:57:54;;;;;;;6.68;2.88;;;8.10;66.30;;;;;;4953497;28;20387;-73
2023/02/08 11:00:33;;;;;;;6.93;3.28;;;7.90;62.60;;;;;;4946893;28;20558;-75
2023/02/08 11:03:14;;;;;;;5.95;3.15;;;6.70;64.40;;;;;;4951087;28;20071;-76
2023/02/08 11:05:39;;;;;;;6.57;2.80;;;8.50;63.00;;;;;;4955077;28;20067;-72
2023/02/08 11:08:18;;;;;;;12.65;3.30;;;9.70;61.80;;;;;;4967141;28;20062;-75
2023/02/08 11:11:06;;;;;;;8.55;3.38;;;10.90;59.10;;;;;;4954294;28;20118;-76
2023/02/08 11:13:42;;;;;;;7.97;3.13;;;9.30;58.30;;;;;;4960743;28;20035;-76
2023/02/08 11:16:26;;;;;;;7.78;3.05;;;12.20;58.40;;;;;;4953210;28;20041;-76
2023/02/08 11:18:56;;;;;;;6.20;2.53;;;12.40;53.90;;;;;;4952077;28;20034;-75
2023/02/08 11:21:35;;;;;;;7.40;2.63;;;10.50;53.80;;;;;;4952989;28;20484;-79
2023/02/08 11:24:34;;;;;;;6.35;3.47;;;10.40;56.90;;;;;;4951611;28;20039;-76
2023/02/08 11:27:01;;;;;;;5.78;3.00;;;8.80;58.50;;;;;;4968873;28;20042;-82
2023/02/08 11:29:32;;;;;;;9.07;3.72;;;11.80;56.90;;;;;;4967405;28;20085;-79
2023/02/08 11:32:18;;;;;;;7.43;3.13;;;8.70;56.60;;;;;;4957857;28;20437;-87
2023/02/08 11:34:44;;;;;;;7.32;3.08;;;9.80;59.00;;;;;;4973451;28;20301;-77
2023/02/08 11:37:25;;;;;;;12.38;3.42;;;11.20;56.70;;;;;;4973670;28;20533;-78
2023/02/08 11:39:59;;;;;;;5.37;2.60;;;10.00;58.70;;;;;;4955851;28;20039;-76
2023/02/08 11:42:34;;;;;;;10.23;2.53;;;12.60;55.90;;;;;;4950545;28;20286;-76
2023/02/08 11:45:00;;;;;;;8.18;2.67;;;14.00;52.90;;;;;;4954025;28;20033;-78
2023/02/08 11:47:34;;;;;;;13.15;3.60;;;11.20;52.00;;;;;;4941341;28;20031;-77
2023/02/08 11:50:07;;;;;;;6.78;2.60;;;9.10;57.20;;;;;;4954494;28;21109;-75
2023/02/08 11:52:41;;;;;;;9.90;3.97;;;11.10;56.40;;;;;;4956945;28;20482;-71
2023/02/08 11:55:24;;;;;;;6.72;2.58;;;11.70;54.70;;;;;;4957125;28;20035;-76
2023/02/08 11:58:01;;;;;;;9.98;2.75;;;13.80;53.10;;;;;;4974331;28;20506;-76
2023/02/08 12:00:34;;;;;;;5.32;2.67;;;12.60;53.50;;;;;;4957557;28;20030;-75
2023/02/08 12:03:22;;;;;;;15.80;3.38;;;11.90;52.70;;;;;;4957432;28;20031;-75
2023/02/08 12:06:15;;;;;;;11.90;3.47;;;11.30;53.80;;;;;;4957757;28;20495;-73
2023/02/08 12:09:20;;;;;;;8.00;2.97;;;11.10;53.90;;;;;;4946217;28;20050;-73
2023/02/08 12:12:35;;;;;;;8.00;3.17;;;11.70;52.10;;;;;;4964509;28;20044;-73
2023/02/08 12:15:24;;;;;;;8.18;3.10;;;11.30;53.30;;;;;;4959391;28;20089;-71
2023/02/08 12:18:20;;;;;;;8.07;3.13;;;13.60;51.00;;;;;;4964457;28;20446;-69
2023/02/08 12:20:50;;;;;;;9.13;3.58;;;14.10;52.90;;;;;;4973128;28;20034;-69
2023/02/08 12:23:27;;;;;;;5.57;2.70;;;11.70;53.20;;;;;;4957145;28;20498;-70
2023/02/08 12:26:15;;;;;;;8.68;3.58;;;12.60;51.30;;;;;;4972566;28;20069;-69
2023/02/08 12:29:14;;;;;;;7.65;2.90;;;11.40;54.20;;;;;;4967724;28;20034;-67
2023/02/08 12:32:20;;;;;;;7.93;2.85;;;14.70;56.50;;;;;;4944833;28;20050;-67
2023/02/08 12:35:34;;;;;;;10.07;4.00;;;17.10;52.20;;;;;;4968447;28;20050;-67
2023/02/08 12:41:20;;;;;;;11.55;3.50;;;16.50;52.20;;;;;;4973665;28;20033;-67
2023/02/08 12:44:08;;;;;;;10.38;3.20;;;16.20;52.40;;;;;;4956491;28;20443;-67
2023/02/08 12:47:13;;;;;;;10.10;3.45;;;17.50;50.60;;;;;;4951185;28;20094;-67
2023/02/08 12:50:00;;;;;;;5.97;3.00;;;16.00;48.70;;;;;;4952469;28;20066;-67
2023/02/08 12:53:02;;;;;;;10.00;4.32;;;17.10;48.20;;;;;;4939551;28;20026;-67
2023/02/08 12:55:36;;;;;;;7.28;2.78;;;13.30;50.40;;;;;;4964584;28;20039;-67
2023/02/08 12:58:30;;;;;;;10.95;4.60;;;13.00;51.40;;;;;;4955022;28;20038;-68
2023/02/08 13:01:19;;;;;;;11.77;3.83;;;12.60;52.50;;;;;;4956039;28;20023;-68
2023/02/08 13:04:18;;;;;;;7.38;3.47;;;13.00;52.10;;;;;;4956582;28;20062;-68
2023/02/08 13:06:55;;;;;;;12.05;3.25;;;13.60;51.40;;;;;;4968337;28;20043;-68
2023/02/08 13:09:33;;;;;;;10.38;3.65;;;14.40;53.40;;;;;;4956229;28;20035;-68
2023/02/08 13:12:09;;;;;;;8.60;4.10;;;14.60;50.90;;;;;;4973019;28;20157;-68
2023/02/08 13:14:51;;;;;;;4.95;2.67;;;15.30;48.40;;;;;;4958359;28;20038;-68
2023/02/08 13:17:28;;;;;;;21.35;3.00;;;12.40;49.30;;;;;;4956072;28;20035;-68
2023/02/08 13:20:24;;;;;;;14.70;3.85;;;10.60;54.60;;;;;;4936758;28;20122;-68
2023/02/08 13:22:55;;;;;;;8.18;4.05;;;9.80;56.00;;;;;;4924997;29;20499;-68